createdAt,value
2018-02-27T00:01:54.813Z,102604.49
2018-02-27T00:04:22.490Z,102602.77
2018-02-27T00:06:50.170Z,102604.69
2018-02-27T00:09:17.808Z,102599.27
2018-02-27T00:11:45.584Z,102594.66
2018-02-27T00:14:13.318Z,102588.58
2018-02-27T00:16:40.985Z,102584.67
2018-02-27T00:19:08.615Z,102577.20
2018-02-27T00:21:36.429Z,102578.06
2018-02-27T00:24:04.055Z,102580.20
2018-02-27T00:26:32.678Z,102578.34
2018-02-27T00:29:00.384Z,102575.45
2018-02-27T00:31:28.069Z,102569.97
2018-02-27T00:33:55.694Z,102570.06
2018-02-27T00:36:23.378Z,102563.03
2018-02-27T00:38:51.016Z,102567.89
2018-02-27T00:41:18.692Z,102557.47
2018-02-27T00:43:46.329Z,102557.21
2018-02-27T00:46:14.013Z,102551.31
2018-02-27T00:48:41.650Z,102545.11
2018-02-27T00:51:09.332Z,102536.81
2018-02-27T00:53:36.960Z,102541.08
2018-02-27T00:56:04.641Z,102540.03
2018-02-27T00:58:32.269Z,102528.49
2018-02-27T01:00:59.935Z,102524.98
2018-02-27T01:03:27.585Z,102532.09
2018-02-27T01:05:55.280Z,102516.05
2018-02-27T01:08:22.925Z,102506.17
2018-02-27T01:10:50.636Z,102503.77
2018-02-27T01:13:18.416Z,102508.22
2018-02-27T01:15:46.223Z,102493.99
2018-02-27T01:18:13.902Z,102493.22
2018-02-27T01:20:41.677Z,102494.99
2018-02-27T01:23:09.362Z,102487.80
2018-02-27T01:25:37.000Z,102480.28
2018-02-27T01:28:04.696Z,102483.66
2018-02-27T01:30:32.335Z,102484.36
2018-02-27T01:33:00.012Z,102485.83
2018-02-27T01:35:27.673Z,102484.48
2018-02-27T01:37:55.364Z,102489.38
2018-02-27T01:40:23.004Z,102484.77
2018-02-27T01:42:50.679Z,102486.28
2018-02-27T01:45:18.314Z,102483.48
2018-02-27T01:47:45.992Z,102479.46
2018-02-27T01:50:13.641Z,102480.77
2018-02-27T01:52:41.326Z,102479.48
2018-02-27T01:55:08.980Z,102478.97
2018-02-27T01:57:36.661Z,102476.67
2018-02-27T02:00:04.305Z,102472.50
2018-02-27T02:02:32.027Z,102469.17
2018-02-27T02:04:59.665Z,102468.24
2018-02-27T02:07:27.468Z,102463.87
2018-02-27T02:09:55.111Z,102448.06
2018-02-27T02:12:22.801Z,102447.20
2018-02-27T02:14:50.438Z,102457.06
2018-02-27T02:17:18.198Z,102456.44
2018-02-27T02:19:45.949Z,102457.70
2018-02-27T02:22:13.634Z,102454.86
2018-02-27T02:24:41.285Z,102439.38
2018-02-27T02:27:09.518Z,102441.39
2018-02-27T02:29:37.290Z,102447.53
2018-02-27T02:32:05.221Z,102439.50
2018-02-27T02:34:32.851Z,102431.57
2018-02-27T02:37:00.690Z,102425.99
2018-02-27T02:39:28.324Z,102423.05
2018-02-27T02:42:07.717Z,102418.31
2018-02-27T02:44:35.362Z,102418.70
2018-02-27T02:47:03.050Z,102423.87
2018-02-27T02:49:30.830Z,102424.86
2018-02-27T02:51:58.514Z,102415.16
2018-02-27T02:54:26.162Z,102425.63
2018-02-27T02:56:53.837Z,102413.37
2018-02-27T02:59:21.488Z,102417.20
2018-02-27T03:01:49.121Z,102412.32
2018-02-27T03:04:16.953Z,102408.92
2018-02-27T03:06:44.588Z,102414.88
2018-02-27T03:09:12.432Z,102411.22
2018-02-27T03:11:40.073Z,102405.20
2018-02-27T03:14:07.761Z,102400.06
2018-02-27T03:16:35.532Z,102399.36
2018-02-27T03:19:03.214Z,102385.95
2018-02-27T03:21:30.851Z,102391.53
2018-02-27T03:23:58.559Z,102384.55
2018-02-27T03:26:26.200Z,102376.97
2018-02-27T03:28:53.914Z,102379.69
2018-02-27T03:31:21.604Z,102372.02
2018-02-27T03:33:49.290Z,102368.52
2018-02-27T03:36:16.982Z,102376.78
2018-02-27T03:38:44.678Z,102365.87
2018-02-27T03:41:12.343Z,102363.70
2018-02-27T03:43:40.021Z,102364.57
2018-02-27T03:46:07.673Z,102363.87
2018-02-27T03:48:35.344Z,102365.49
2018-02-27T03:51:03.007Z,102375.91
2018-02-27T03:53:30.699Z,102388.01
2018-02-27T03:55:58.368Z,102381.12
2018-02-27T03:58:26.041Z,102373.97
2018-02-27T04:00:53.679Z,102370.05
2018-02-27T04:03:21.369Z,102364.86
2018-02-27T04:05:49.042Z,102368.22
2018-02-27T04:08:16.853Z,102357.22
2018-02-27T04:10:44.555Z,102372.11
2018-02-27T04:13:12.250Z,102365.00
2018-02-27T04:15:39.892Z,102364.30
2018-02-27T04:18:07.622Z,102370.11
2018-02-27T04:20:35.381Z,102358.84
2018-02-27T04:23:03.083Z,102352.52
2018-02-27T04:25:30.848Z,102345.28
2018-02-27T04:27:58.554Z,102343.42
2018-02-27T04:30:26.184Z,102337.02
2018-02-27T04:32:53.894Z,102343.42
2018-02-27T04:35:21.546Z,102345.70
2018-02-27T04:37:49.228Z,102331.24
2018-02-27T04:40:17.074Z,102334.46
2018-02-27T04:42:44.726Z,102335.05
2018-02-27T04:45:12.420Z,102331.19
2018-02-27T04:47:40.060Z,102320.75
2018-02-27T04:50:07.752Z,102328.33
2018-02-27T04:52:35.381Z,102317.38
2018-02-27T04:55:03.171Z,102315.09
2018-02-27T04:57:30.809Z,102315.59
2018-02-27T04:59:58.511Z,102311.91
2018-02-27T05:02:26.283Z,102309.44
2018-02-27T05:04:53.970Z,102308.46
2018-02-27T05:07:21.612Z,102310.44
2018-02-27T05:09:49.288Z,102302.45
2018-02-27T05:12:16.950Z,102306.72
2018-02-27T05:14:44.626Z,102305.13
2018-02-27T05:17:12.377Z,102294.60
2018-02-27T05:19:40.070Z,102297.13
2018-02-27T05:22:07.730Z,102296.52
2018-02-27T05:24:35.418Z,102291.34
2018-02-27T05:27:03.077Z,102286.93
2018-02-27T05:29:30.781Z,102282.59
2018-02-27T05:31:58.563Z,102275.83
2018-02-27T05:34:26.346Z,102280.14
2018-02-27T05:36:54.013Z,102286.52
2018-02-27T05:39:21.714Z,102285.18
2018-02-27T05:41:49.410Z,102283.47
2018-02-27T05:44:17.118Z,102291.28
2018-02-27T05:46:44.777Z,102285.88
2018-02-27T05:49:12.521Z,102282.88
2018-02-27T05:51:40.186Z,102284.67
2018-02-27T05:54:07.882Z,102289.63
2018-02-27T05:56:35.567Z,102281.34
2018-02-27T05:59:03.286Z,102287.94
2018-02-27T06:01:31.029Z,102286.67
2018-02-27T06:03:58.767Z,102291.08
2018-02-27T06:06:26.487Z,102287.69
2018-02-27T06:08:54.172Z,102284.66
2018-02-27T06:11:21.839Z,102285.22
2018-02-27T06:13:49.552Z,102276.19
2018-02-27T06:16:17.300Z,102287.23
2018-02-27T06:18:44.990Z,102281.25
2018-02-27T06:21:12.666Z,102281.72
2018-02-27T06:23:40.322Z,102279.28
2018-02-27T06:26:08.001Z,102284.30
2018-02-27T06:28:35.632Z,102283.22
2018-02-27T06:31:03.312Z,102280.06
2018-02-27T06:33:30.956Z,102281.92
2018-02-27T06:35:58.641Z,102276.92
2018-02-27T06:38:26.292Z,102274.48
2018-02-27T06:40:54.006Z,102278.05
2018-02-27T06:43:21.686Z,102272.28
2018-02-27T06:45:49.371Z,102277.76
2018-02-27T06:48:17.023Z,102275.09
2018-02-27T06:50:44.721Z,102280.99
2018-02-27T06:53:12.350Z,102282.98
2018-02-27T06:55:40.053Z,102276.02
2018-02-27T06:58:07.830Z,102279.61
2018-02-27T07:00:35.549Z,102282.97
2018-02-27T07:03:03.197Z,102280.27
2018-02-27T07:05:30.882Z,102292.36
2018-02-27T07:07:58.539Z,102313.92
2018-02-27T07:10:26.236Z,102356.50
2018-02-27T07:12:53.862Z,102317.99
2018-02-27T07:15:21.574Z,102309.85
2018-02-27T07:17:49.464Z,102308.97
2018-02-27T07:20:17.517Z,102300.92
2018-02-27T07:22:45.473Z,102293.78
2018-02-27T07:25:13.467Z,102295.31
2018-02-27T07:27:41.357Z,102292.43
2018-02-27T07:30:09.466Z,102285.59
2018-02-27T07:32:37.437Z,102276.50
2018-02-27T07:35:05.544Z,102260.94
2018-02-27T07:37:33.564Z,102237.77
2018-02-27T07:40:01.675Z,102229.20
2018-02-27T07:42:29.705Z,102218.70
2018-02-27T07:44:58.226Z,102218.86
2018-02-27T07:47:25.928Z,102213.56
2018-02-27T07:49:53.767Z,102206.92
2018-02-27T07:52:21.423Z,102205.83
2018-02-27T07:54:49.497Z,102200.22
2018-02-27T07:57:17.274Z,102201.59
2018-02-27T07:59:45.034Z,102200.31
2018-02-27T08:02:12.702Z,102199.52
2018-02-27T08:04:40.444Z,102198.44
2018-02-27T08:07:08.154Z,102201.80
2018-02-27T08:09:35.870Z,102191.11
2018-02-27T08:12:03.663Z,102189.13
2018-02-27T08:14:31.394Z,102181.30
2018-02-27T08:16:59.165Z,102177.73
2018-02-27T08:19:26.895Z,102178.39
2018-02-27T08:21:54.726Z,102181.91
2018-02-27T08:24:22.468Z,102178.22
2018-02-27T08:26:50.197Z,102176.00
2018-02-27T08:29:17.908Z,102172.81
2018-02-27T08:31:45.686Z,102175.95
2018-02-27T08:34:13.367Z,102156.30
2018-02-27T08:36:41.137Z,102149.22
2018-02-27T08:39:08.866Z,102146.17
2018-02-27T08:41:36.618Z,102152.57
2018-02-27T08:44:04.364Z,102141.85
2018-02-27T08:46:32.131Z,102140.16
2018-02-27T08:48:59.859Z,102147.39
2018-02-27T08:51:27.623Z,102144.56
2018-02-27T08:53:55.342Z,102138.59
2018-02-27T08:56:23.146Z,102143.06
2018-02-27T08:58:50.846Z,102134.62
2018-02-27T09:01:18.570Z,102139.16
2018-02-27T09:03:46.311Z,102129.01
2018-02-27T09:06:14.074Z,102133.93
2018-02-27T09:08:41.774Z,102139.86
2018-02-27T09:11:09.526Z,102133.56
2018-02-27T09:13:37.286Z,102144.41
2018-02-27T09:16:05.053Z,102142.22
2018-02-27T09:18:32.856Z,102150.20
2018-02-27T09:21:00.652Z,102145.89
2018-02-27T09:23:28.383Z,102141.00
2018-02-27T09:25:56.143Z,102145.08
2018-02-27T09:28:23.844Z,102143.09
2018-02-27T09:30:51.642Z,102134.66
2018-02-27T09:33:19.340Z,102137.45
2018-02-27T09:35:47.106Z,102131.23
2018-02-27T09:38:14.818Z,102127.88
2018-02-27T09:40:42.660Z,102127.64
2018-02-27T09:43:10.407Z,102122.35
2018-02-27T09:45:38.139Z,102114.52
2018-02-27T09:48:05.843Z,102108.70
2018-02-27T09:50:33.503Z,102115.41
2018-02-27T09:53:01.239Z,102108.76
2018-02-27T09:55:28.957Z,102110.97
2018-02-27T09:57:56.762Z,102100.06
2018-02-27T10:00:24.494Z,102101.89
2018-02-27T10:02:52.263Z,102107.70
2018-02-27T10:05:19.974Z,102097.75
2018-02-27T10:07:47.707Z,102104.98
2018-02-27T10:10:15.392Z,102099.17
2018-02-27T10:12:43.141Z,102104.83
2018-02-27T10:15:11.005Z,102087.05
2018-02-27T10:17:39.062Z,102100.05
2018-02-27T10:20:06.975Z,102096.92
2018-02-27T10:22:34.962Z,102100.50
2018-02-27T10:25:02.889Z,102100.77
2018-02-27T10:27:33.688Z,102091.48
2018-02-27T10:30:01.602Z,102092.77
2018-02-27T10:32:29.630Z,102087.95
2018-02-27T10:34:58.076Z,102086.08
2018-02-27T10:37:26.237Z,102087.05
2018-02-27T10:39:53.960Z,102093.56
2018-02-27T10:42:22.100Z,102082.05
2018-02-27T10:44:50.884Z,102091.41
2018-02-27T10:47:18.631Z,102079.94
2018-02-27T10:49:46.342Z,102072.22
2018-02-27T10:52:14.042Z,102065.02
2018-02-27T10:54:41.689Z,102068.70
2018-02-27T10:57:09.492Z,102068.02
2018-02-27T10:59:37.190Z,102065.62
2018-02-27T11:02:07.642Z,102062.77
2018-02-27T11:04:35.321Z,102057.74
2018-02-27T11:07:03.100Z,102063.48
2018-02-27T11:09:31.015Z,102059.36
2018-02-27T11:11:58.704Z,102061.09
2018-02-27T11:14:26.336Z,102061.73
2018-02-27T11:16:54.016Z,102047.67
2018-02-27T11:19:21.656Z,102055.88
2018-02-27T11:21:49.318Z,102055.83
2018-02-27T11:24:17.067Z,102053.59
2018-02-27T11:26:44.739Z,102046.16
2018-02-27T11:29:12.572Z,102048.88
2018-02-27T11:31:41.793Z,102039.39
2018-02-27T11:34:09.796Z,102038.42
2018-02-27T11:36:37.625Z,102037.75
2018-02-27T11:39:05.673Z,102034.28
2018-02-27T11:41:33.516Z,102030.08
2018-02-27T11:44:01.388Z,102026.23
2018-02-27T11:46:29.273Z,102035.89
2018-02-27T11:48:57.113Z,102032.00
2018-02-27T11:51:25.044Z,102030.31
2018-02-27T11:53:52.996Z,102027.98
2018-02-27T11:56:20.968Z,102030.34
2018-02-27T11:58:48.788Z,102023.23
2018-02-27T12:01:16.837Z,102018.00
2018-02-27T12:03:44.560Z,102041.65
2018-02-27T12:06:12.214Z,102041.29
2018-02-27T12:08:39.978Z,102046.14
2018-02-27T12:11:07.647Z,102073.25
2018-02-27T12:13:35.327Z,102087.57
2018-02-27T12:16:03.050Z,102091.83
2018-02-27T12:18:30.869Z,102085.82
2018-02-27T12:20:58.534Z,102079.69
2018-02-27T12:23:26.336Z,102086.69
2018-02-27T12:25:54.049Z,102087.02
2018-02-27T12:28:21.754Z,102081.14
2018-02-27T12:30:49.424Z,102080.38
2018-02-27T12:33:17.287Z,102064.23
2018-02-27T12:35:44.948Z,102062.98
2018-02-27T12:38:12.666Z,102050.39
2018-02-27T12:40:40.346Z,102047.43
2018-02-27T12:43:08.046Z,102052.84
2018-02-27T12:45:35.712Z,102043.73
2018-02-27T12:48:03.436Z,102038.73
2018-02-27T12:50:31.073Z,102027.52
2018-02-27T12:52:58.805Z,102031.34
2018-02-27T12:55:26.497Z,102025.52
2018-02-27T12:57:54.231Z,102024.95
2018-02-27T13:00:21.915Z,102027.42
2018-02-27T13:02:49.641Z,102024.81
2018-02-27T13:05:17.371Z,102010.08
2018-02-27T13:07:45.146Z,102030.30
2018-02-27T13:10:12.862Z,102016.58
2018-02-27T13:12:40.578Z,102022.89
2018-02-27T13:15:08.290Z,102012.09
2018-02-27T13:17:35.989Z,102018.14
2018-02-27T13:20:03.787Z,102012.10
2018-02-27T13:22:31.487Z,102010.30
2018-02-27T13:24:59.239Z,102008.50
2018-02-27T13:27:26.979Z,102013.39
2018-02-27T13:29:54.755Z,102006.31
2018-02-27T13:32:22.449Z,102012.75
2018-02-27T13:34:50.183Z,102017.31
2018-02-27T13:37:17.917Z,102018.34
2018-02-27T13:39:45.666Z,102020.20
2018-02-27T13:42:13.396Z,102015.91
2018-02-27T13:44:41.122Z,102018.11
2018-02-27T13:47:08.851Z,102012.45
2018-02-27T13:49:36.574Z,102012.49
2018-02-27T13:52:04.310Z,102015.90
2018-02-27T13:54:32.091Z,102009.00
2018-02-27T13:56:59.759Z,102007.40
2018-02-27T13:59:27.515Z,102016.10
2018-02-27T14:01:55.182Z,102005.95
2018-02-27T14:04:22.983Z,102003.28
2018-02-27T14:06:50.651Z,102002.42
2018-02-27T14:09:18.371Z,101999.75
2018-02-27T14:11:46.103Z,101999.42
2018-02-27T14:14:13.855Z,101996.52
2018-02-27T14:16:41.566Z,101999.58
2018-02-27T14:19:09.281Z,101998.31
2018-02-27T14:21:36.974Z,101994.97
2018-02-27T14:24:04.717Z,101989.53
2018-02-27T14:26:32.432Z,101993.61
2018-02-27T14:29:00.180Z,101991.22
2018-02-27T14:31:27.843Z,101991.81
2018-02-27T14:33:55.582Z,101993.22
2018-02-27T14:36:23.306Z,101989.68
2018-02-27T14:38:51.002Z,101984.80
2018-02-27T14:41:18.651Z,101991.45
2018-02-27T14:43:46.419Z,101989.48
2018-02-27T14:46:14.094Z,101984.16
2018-02-27T14:48:41.874Z,101983.91
2018-02-27T14:51:09.570Z,101981.21
2018-02-27T14:53:37.319Z,101986.11
2018-02-27T14:56:05.030Z,101982.33
2018-02-27T14:58:32.830Z,101987.76
2018-02-27T15:01:00.599Z,101991.77
2018-02-27T15:03:28.307Z,101987.47
2018-02-27T15:05:56.026Z,101991.68
2018-02-27T15:08:23.682Z,101993.79
2018-02-27T15:10:51.439Z,102000.16
2018-02-27T15:13:19.101Z,102006.14
2018-02-27T15:15:46.878Z,102006.86
2018-02-27T15:18:14.546Z,102013.72
2018-02-27T15:20:42.234Z,102020.17
2018-02-27T15:23:09.947Z,102022.90
2018-02-27T15:25:37.654Z,102018.39
2018-02-27T15:28:05.331Z,102024.91
2018-02-27T15:30:33.079Z,102025.75
2018-02-27T15:33:00.752Z,102034.06
2018-02-27T15:35:28.518Z,102034.63
2018-02-27T15:37:56.194Z,102041.68
2018-02-27T15:40:23.978Z,102035.08
2018-02-27T15:42:51.862Z,102037.77
2018-02-27T15:45:19.590Z,102038.19
2018-02-27T15:47:47.277Z,102034.36
2018-02-27T15:50:15.027Z,102034.39
2018-02-27T15:52:42.745Z,102037.03
2018-02-27T15:55:10.510Z,102036.19
2018-02-27T15:57:38.289Z,102038.92
2018-02-27T16:00:06.050Z,102043.87
2018-02-27T16:02:33.762Z,102049.03
2018-02-27T16:05:01.531Z,102040.09
2018-02-27T16:07:29.278Z,102046.72
2018-02-27T16:09:57.038Z,102048.30
2018-02-27T16:12:24.752Z,102047.78
2018-02-27T16:14:52.461Z,102044.16
2018-02-27T16:17:20.222Z,102057.03
2018-02-27T16:19:47.952Z,102063.98
2018-02-27T16:22:15.760Z,102066.03
2018-02-27T16:24:43.479Z,102058.11
2018-02-27T16:27:11.229Z,102065.34
2018-02-27T16:29:39.047Z,102066.70
2018-02-27T16:32:06.794Z,102064.73
2018-02-27T16:34:34.664Z,102067.44
2018-02-27T16:37:02.370Z,102080.05
2018-02-27T16:39:30.154Z,102077.84
2018-02-27T16:41:57.982Z,102079.68
2018-02-27T16:44:25.907Z,102088.73
2018-02-27T16:46:53.666Z,102098.08
2018-02-27T16:49:21.334Z,102093.69
2018-02-27T16:51:49.059Z,102099.88
2018-02-27T16:54:16.953Z,102100.55
2018-02-27T16:56:44.830Z,102103.52
2018-02-27T16:59:12.586Z,102111.28
2018-02-27T17:01:40.318Z,102112.57
2018-02-27T17:04:07.992Z,102119.41
2018-02-27T17:06:35.698Z,102119.13
2018-02-27T17:09:03.577Z,102128.56
2018-02-27T17:11:31.280Z,102140.77
2018-02-27T17:13:58.968Z,102138.25
2018-02-27T17:16:26.704Z,102142.67
2018-02-27T17:18:54.476Z,102140.12
2018-02-27T17:21:22.548Z,102146.08
2018-02-27T17:23:50.216Z,102157.74
2018-02-27T17:26:17.959Z,102168.72
2018-02-27T17:28:45.716Z,102164.20
2018-02-27T17:31:13.435Z,102163.27
2018-02-27T17:33:41.127Z,102173.84
2018-02-27T17:36:08.862Z,102172.98
2018-02-27T17:38:36.678Z,102174.80
2018-02-27T17:41:04.391Z,102173.13
2018-02-27T17:43:32.069Z,102180.34
2018-02-27T17:45:59.780Z,102187.70
2018-02-27T17:48:27.460Z,102191.42
2018-02-27T17:50:55.196Z,102194.14
2018-02-27T17:53:23.194Z,102213.23
2018-02-27T17:55:51.234Z,102212.20
2018-02-27T17:58:20.875Z,102214.08
2018-02-27T18:00:48.709Z,102216.63
2018-02-27T18:03:16.357Z,102214.14
2018-02-27T18:05:44.063Z,102223.92
2018-02-27T18:08:13.982Z,102224.09
2018-02-27T18:10:41.751Z,102241.94
2018-02-27T18:13:10.891Z,102224.17
2018-02-27T18:15:40.492Z,102237.92
2018-02-27T18:18:08.144Z,102243.54
2018-02-27T18:20:38.314Z,102245.96
2018-02-27T18:23:07.328Z,102249.42
2018-02-27T18:25:35.171Z,102269.47
2018-02-27T18:28:02.844Z,102255.28
2018-02-27T18:30:30.475Z,102263.59
2018-02-27T18:33:00.417Z,102268.61
2018-02-27T18:35:29.977Z,102276.02
2018-02-27T18:37:57.687Z,102284.70
2018-02-27T18:40:25.351Z,102281.81
2018-02-27T18:42:53.040Z,102288.91
2018-02-27T18:45:20.710Z,102294.33
2018-02-27T18:47:48.419Z,102297.64
2018-02-27T18:50:16.065Z,102303.75
2018-02-27T18:52:43.894Z,102316.69
2018-02-27T18:55:11.560Z,102311.70
2018-02-27T18:57:39.248Z,102312.02
2018-02-27T19:00:06.928Z,102316.33
2018-02-27T19:02:34.650Z,102316.72
2018-02-27T19:05:02.311Z,102320.69
2018-02-27T19:07:30.018Z,102328.29
2018-02-27T19:09:57.688Z,102333.48
2018-02-27T19:12:38.765Z,102340.97
2018-02-27T19:15:06.934Z,102342.22
2018-02-27T19:17:34.649Z,102354.05
2018-02-27T19:20:02.450Z,102363.02
2018-02-27T19:22:30.154Z,102357.88
2018-02-27T19:24:57.823Z,102357.00
2018-02-27T19:27:25.652Z,102363.58
2018-02-27T19:29:53.386Z,102356.87
2018-02-27T19:32:21.332Z,102374.09
2018-02-27T19:34:49.171Z,102377.41
2018-02-27T19:37:17.023Z,102378.61
2018-02-27T19:39:44.842Z,102376.33
2018-02-27T19:42:12.682Z,102378.58
2018-02-27T19:44:40.490Z,102378.33
2018-02-27T19:47:08.423Z,102384.42
2018-02-27T19:49:36.174Z,102390.28
2018-02-27T19:52:04.011Z,102393.42
2018-02-27T19:54:31.761Z,102397.93
2018-02-27T19:56:59.520Z,102399.33
2018-02-27T19:59:27.194Z,102401.30
2018-02-27T20:01:54.914Z,102402.56
2018-02-27T20:04:22.582Z,102411.66
2018-02-27T20:06:50.269Z,102413.58
2018-02-27T20:09:18.056Z,102415.38
2018-02-27T20:11:45.762Z,102415.78
2018-02-27T20:14:19.288Z,102416.69
2018-02-27T20:16:47.006Z,102421.14
2018-02-27T20:19:14.667Z,102429.05
2018-02-27T20:21:42.377Z,102429.47
2018-02-27T20:24:15.736Z,102431.07
2018-02-27T20:26:43.654Z,102428.08
2018-02-27T20:29:17.057Z,102437.00
2018-02-27T20:31:44.800Z,102431.08
2018-02-27T20:34:12.559Z,102433.01
2018-02-27T20:36:40.226Z,102434.88
2018-02-27T20:39:13.514Z,102438.25
2018-02-27T20:41:41.194Z,102439.69
2018-02-27T20:44:08.926Z,102438.26
2018-02-27T20:46:36.579Z,102447.75
2018-02-27T20:49:04.291Z,102442.77
2018-02-27T20:51:31.966Z,102451.81
2018-02-27T20:53:59.674Z,102456.47
2018-02-27T20:56:27.346Z,102449.36
2018-02-27T20:58:55.024Z,102442.75
2018-02-27T21:01:22.687Z,102461.28
2018-02-27T21:03:50.398Z,102454.79
2018-02-27T21:06:18.125Z,102450.87
2018-02-27T21:08:45.815Z,102467.23
2018-02-27T21:11:13.476Z,102468.57
2018-02-27T21:13:41.155Z,102476.28
2018-02-27T21:16:08.852Z,102473.14
2018-02-27T21:18:36.550Z,102472.44
2018-02-27T21:21:04.253Z,102474.39
2018-02-27T21:23:31.960Z,102478.81
2018-02-27T21:25:59.650Z,102482.62
2018-02-27T21:28:27.466Z,102483.58
2018-02-27T21:30:55.141Z,102486.77
2018-02-27T21:33:22.849Z,102493.97
2018-02-27T21:35:50.646Z,102486.19
2018-02-27T21:38:18.358Z,102485.23
2018-02-27T21:40:46.050Z,102491.81
2018-02-27T21:43:13.729Z,102493.55
2018-02-27T21:45:41.644Z,102491.94
2018-02-27T21:48:09.363Z,102497.59
2018-02-27T21:50:37.042Z,102498.30
2018-02-27T21:53:04.742Z,102505.00
2018-02-27T21:55:32.573Z,102503.11
2018-02-27T21:58:00.282Z,102500.55
2018-02-27T22:00:27.953Z,102490.69
2018-02-27T22:02:55.682Z,102506.92
2018-02-27T22:05:24.244Z,102500.51
2018-02-27T22:07:51.936Z,102501.72
2018-02-27T22:10:19.602Z,102503.38
2018-02-27T22:12:47.374Z,102496.26
2018-02-27T22:15:15.087Z,102502.23
2018-02-27T22:17:42.827Z,102505.97
2018-02-27T22:20:10.480Z,102502.94
2018-02-27T22:22:38.172Z,102497.41
2018-02-27T22:25:05.876Z,102492.98
2018-02-27T22:27:33.548Z,102492.66
2018-02-27T22:30:01.246Z,102497.81
2018-02-27T22:32:28.906Z,102499.86
2018-02-27T22:34:56.626Z,102497.68
2018-02-27T22:37:24.290Z,102503.81
2018-02-27T22:39:51.997Z,102514.87
2018-02-27T22:42:19.691Z,102523.25
2018-02-27T22:44:47.373Z,102514.94
2018-02-27T22:47:15.030Z,102512.55
2018-02-27T22:49:42.720Z,102512.91
2018-02-27T22:52:10.366Z,102513.67
2018-02-27T22:54:38.085Z,102523.20
2018-02-27T22:57:05.768Z,102517.06
2018-02-27T22:59:33.429Z,102519.02
2018-02-27T23:02:01.064Z,102521.99
2018-02-27T23:04:28.769Z,102520.45
2018-02-27T23:06:56.398Z,102519.70
2018-02-27T23:09:24.112Z,102520.08
2018-02-27T23:11:51.758Z,102527.20
2018-02-27T23:14:19.546Z,102530.41
2018-02-27T23:16:47.177Z,102536.50
2018-02-27T23:19:14.861Z,102541.56
2018-02-27T23:21:42.498Z,102537.16
2018-02-27T23:24:10.274Z,102541.22
2018-02-27T23:26:39.349Z,102547.38
2018-02-27T23:29:07.151Z,102538.51
2018-02-27T23:31:38.576Z,102551.92
2018-02-27T23:34:08.785Z,102545.91
2018-02-27T23:36:36.412Z,102542.59
2018-02-27T23:39:04.120Z,102534.72
2018-02-27T23:41:31.745Z,102534.89
2018-02-27T23:43:59.413Z,102531.01
2018-02-27T23:46:27.055Z,102536.23
2018-02-27T23:48:54.725Z,102533.28
2018-02-27T23:51:22.366Z,102541.05
2018-02-27T23:53:50.206Z,102542.89
2018-02-27T23:56:17.842Z,102545.16
2018-02-27T23:58:45.512Z,102545.41
